sensor_id;sensor_type;location;lat;lon;timestamp;temperature;humidity
7002;DHT22;3541;53.230;10.518;2023-08-31T00:01:05;15.60;99.90
7002;DHT22;3541;53.230;10.518;2023-08-31T00:03:32;15.60;99.90
7002;DHT22;3541;53.230;10.518;2023-08-31T00:06:01;15.40;99.90
7002;DHT22;3541;53.230;10.518;2023-08-31T00:08:28;15.40;99.90
7002;DHT22;3541;53.230;10.518;2023-08-31T00:10:55;15.30;99.90
7002;DHT22;3541;53.230;10.518;2023-08-31T00:13:22;15.40;99.90
7002;DHT22;3541;53.230;10.518;2023-08-31T00:15:49;15.40;99.90
7002;DHT22;3541;53.230;10.518;2023-08-31T00:18:17;15.40;99.90
7002;DHT22;3541;53.230;10.518;2023-08-31T00:20:46;15.40;99.90
7002;DHT22;3541;53.230;10.518;2023-08-31T00:23:12;15.40;99.90
7002;DHT22;3541;53.230;10.518;2023-08-31T00:25:39;15.40;99.90
7002;DHT22;3541;53.230;10.518;2023-08-31T00:28:09;15.40;99.90
7002;DHT22;3541;53.230;10.518;2023-08-31T00:30:35;15.30;99.90
7002;DHT22;3541;53.230;10.518;2023-08-31T00:33:02;15.40;99.90
7002;DHT22;3541;53.230;10.518;2023-08-31T00:35:32;15.40;99.90
7002;DHT22;3541;53.230;10.518;2023-08-31T00:37:59;15.40;99.90
7002;DHT22;3541;53.230;10.518;2023-08-31T00:40:26;15.50;99.90
7002;DHT22;3541;53.230;10.518;2023-08-31T00:43:05;15.40;99.90
7002;DHT22;3541;53.230;10.518;2023-08-31T00:45:32;15.50;99.90
7002;DHT22;3541;53.230;10.518;2023-08-31T00:48:00;15.50;99.90
7002;DHT22;3541;53.230;10.518;2023-08-31T00:50:26;15.50;99.90
7002;DHT22;3541;53.230;10.518;2023-08-31T00:52:54;15.50;99.90
7002;DHT22;3541;53.230;10.518;2023-08-31T00:55:21;15.50;99.90
7002;DHT22;3541;53.230;10.518;2023-08-31T00:57:48;15.50;99.90
7002;DHT22;3541;53.230;10.518;2023-08-31T01:00:15;15.40;99.90
7002;DHT22;3541;53.230;10.518;2023-08-31T01:02:48;15.30;99.90
7002;DHT22;3541;53.230;10.518;2023-08-31T01:05:27;15.20;99.90
7002;DHT22;3541;53.230;10.518;2023-08-31T01:08:03;15.30;99.90
7002;DHT22;3541;53.230;10.518;2023-08-31T01:10:37;15.30;99.90
7002;DHT22;3541;53.230;10.518;2023-08-31T01:13:11;15.30;99.90
7002;DHT22;3541;53.230;10.518;2023-08-31T01:15:41;15.30;99.90
7002;DHT22;3541;53.230;10.518;2023-08-31T01:18:09;15.30;99.90
7002;DHT22;3541;53.230;10.518;2023-08-31T01:20:41;15.30;99.90
7002;DHT22;3541;53.230;10.518;2023-08-31T01:23:13;15.30;99.90
7002;DHT22;3541;53.230;10.518;2023-08-31T01:25:43;15.30;99.90
7002;DHT22;3541;53.230;10.518;2023-08-31T01:28:12;15.30;99.90
7002;DHT22;3541;53.230;10.518;2023-08-31T01:30:38;15.30;99.90
7002;DHT22;3541;53.230;10.518;2023-08-31T01:33:05;15.10;99.90
7002;DHT22;3541;53.230;10.518;2023-08-31T01:35:37;15.10;99.90
7002;DHT22;3541;53.230;10.518;2023-08-31T01:38:07;15.00;99.90
7002;DHT22;3541;53.230;10.518;2023-08-31T01:40:39;15.00;99.90
7002;DHT22;3541;53.230;10.518;2023-08-31T01:43:08;15.00;99.90
7002;DHT22;3541;53.230;10.518;2023-08-31T01:45:35;15.10;99.90
7002;DHT22;3541;53.230;10.518;2023-08-31T01:48:04;15.10;99.90
7002;DHT22;3541;53.230;10.518;2023-08-31T01:50:31;15.10;99.90
7002;DHT22;3541;53.230;10.518;2023-08-31T01:52:57;15.00;99.90
7002;DHT22;3541;53.230;10.518;2023-08-31T01:55:24;14.90;99.90
7002;DHT22;3541;53.230;10.518;2023-08-31T01:57:51;14.90;99.90
7002;DHT22;3541;53.230;10.518;2023-08-31T02:00:19;14.70;99.90
7002;DHT22;3541;53.230;10.518;2023-08-31T02:02:46;14.80;99.90
7002;DHT22;3541;53.230;10.518;2023-08-31T02:05:13;14.70;99.90
7002;DHT22;3541;53.230;10.518;2023-08-31T02:07:39;14.70;99.90
7002;DHT22;3541;53.230;10.518;2023-08-31T02:10:07;14.90;99.90
7002;DHT22;3541;53.230;10.518;2023-08-31T02:12:34;14.90;99.90
7002;DHT22;3541;53.230;10.518;2023-08-31T02:15:02;14.90;99.90
7002;DHT22;3541;53.230;10.518;2023-08-31T02:17:30;14.90;99.90
7002;DHT22;3541;53.230;10.518;2023-08-31T02:19:56;14.80;99.90
7002;DHT22;3541;53.230;10.518;2023-08-31T02:22:24;14.80;99.90
7002;DHT22;3541;53.230;10.518;2023-08-31T02:24:50;14.80;99.90
7002;DHT22;3541;53.230;10.518;2023-08-31T02:27:17;14.80;99.90
7002;DHT22;3541;53.230;10.518;2023-08-31T02:29:44;14.60;99.90
7002;DHT22;3541;53.230;10.518;2023-08-31T02:32:10;14.60;99.90
7002;DHT22;3541;53.230;10.518;2023-08-31T02:34:38;14.60;99.90
7002;DHT22;3541;53.230;10.518;2023-08-31T02:37:05;14.60;99.90
7002;DHT22;3541;53.230;10.518;2023-08-31T02:39:31;14.50;99.90
7002;DHT22;3541;53.230;10.518;2023-08-31T02:41:58;14.50;99.90
7002;DHT22;3541;53.230;10.518;2023-08-31T02:44:25;14.50;99.90
7002;DHT22;3541;53.230;10.518;2023-08-31T02:46:51;14.50;99.90
7002;DHT22;3541;53.230;10.518;2023-08-31T02:49:18;14.50;99.90
7002;DHT22;3541;53.230;10.518;2023-08-31T02:51:46;14.50;99.90
7002;DHT22;3541;53.230;10.518;2023-08-31T02:54:14;14.50;99.90
7002;DHT22;3541;53.230;10.518;2023-08-31T02:56:42;14.30;99.90
7002;DHT22;3541;53.230;10.518;2023-08-31T02:59:08;14.30;99.90
7002;DHT22;3541;53.230;10.518;2023-08-31T03:01:35;14.30;99.90
7002;DHT22;3541;53.230;10.518;2023-08-31T03:04:01;14.30;99.90
7002;DHT22;3541;53.230;10.518;2023-08-31T03:06:28;14.30;99.90
7002;DHT22;3541;53.230;10.518;2023-08-31T03:08:56;14.30;99.90
7002;DHT22;3541;53.230;10.518;2023-08-31T03:11:23;14.30;99.90
7002;DHT22;3541;53.230;10.518;2023-08-31T03:13:49;14.30;99.90
7002;DHT22;3541;53.230;10.518;2023-08-31T03:16:16;14.30;99.90
7002;DHT22;3541;53.230;10.518;2023-08-31T03:18:42;14.10;99.90
7002;DHT22;3541;53.230;10.518;2023-08-31T03:21:09;14.00;99.90
7002;DHT22;3541;53.230;10.518;2023-08-31T03:23:36;14.10;99.90
7002;DHT22;3541;53.230;10.518;2023-08-31T03:26:07;14.10;99.90
7002;DHT22;3541;53.230;10.518;2023-08-31T03:28:34;14.10;99.90
7002;DHT22;3541;53.230;10.518;2023-08-31T03:31:01;14.00;99.90
7002;DHT22;3541;53.230;10.518;2023-08-31T03:33:28;14.10;99.90
7002;DHT22;3541;53.230;10.518;2023-08-31T03:35:59;13.90;99.90
7002;DHT22;3541;53.230;10.518;2023-08-31T03:38:26;14.00;99.90
7002;DHT22;3541;53.230;10.518;2023-08-31T03:40:53;14.00;99.90
7002;DHT22;3541;53.230;10.518;2023-08-31T03:43:22;13.90;99.90
7002;DHT22;3541;53.230;10.518;2023-08-31T03:45:49;14.10;99.90
7002;DHT22;3541;53.230;10.518;2023-08-31T03:48:15;13.90;99.90
7002;DHT22;3541;53.230;10.518;2023-08-31T03:50:42;13.90;99.90
7002;DHT22;3541;53.230;10.518;2023-08-31T03:53:08;13.90;99.90
7002;DHT22;3541;53.230;10.518;2023-08-31T03:55:35;13.80;99.90
7002;DHT22;3541;53.230;10.518;2023-08-31T03:58:02;13.80;99.90
7002;DHT22;3541;53.230;10.518;2023-08-31T04:00:30;13.70;99.90
7002;DHT22;3541;53.230;10.518;2023-08-31T04:02:57;13.70;99.90
7002;DHT22;3541;53.230;10.518;2023-08-31T04:05:23;13.70;99.90
7002;DHT22;3541;53.230;10.518;2023-08-31T04:07:50;13.60;99.90
7002;DHT22;3541;53.230;10.518;2023-08-31T04:10:17;13.50;99.90
7002;DHT22;3541;53.230;10.518;2023-08-31T04:12:44;13.60;99.90
7002;DHT22;3541;53.230;10.518;2023-08-31T04:15:11;13.40;99.90
7002;DHT22;3541;53.230;10.518;2023-08-31T04:17:40;13.60;99.90
7002;DHT22;3541;53.230;10.518;2023-08-31T04:20:07;13.60;99.90
7002;DHT22;3541;53.230;10.518;2023-08-31T04:22:34;13.50;99.90
7002;DHT22;3541;53.230;10.518;2023-08-31T04:25:01;13.40;99.90
7002;DHT22;3541;53.230;10.518;2023-08-31T04:27:27;13.50;99.90
7002;DHT22;3541;53.230;10.518;2023-08-31T04:29:56;13.50;99.90
7002;DHT22;3541;53.230;10.518;2023-08-31T04:32:22;13.60;99.90
7002;DHT22;3541;53.230;10.518;2023-08-31T04:34:52;13.60;99.90
7002;DHT22;3541;53.230;10.518;2023-08-31T04:37:18;13.60;99.90
7002;DHT22;3541;53.230;10.518;2023-08-31T04:39:45;13.60;99.90
7002;DHT22;3541;53.230;10.518;2023-08-31T04:42:12;13.60;99.90
7002;DHT22;3541;53.230;10.518;2023-08-31T04:44:38;13.60;99.90
7002;DHT22;3541;53.230;10.518;2023-08-31T04:47:05;13.60;99.90
7002;DHT22;3541;53.230;10.518;2023-08-31T04:49:31;13.60;99.90
7002;DHT22;3541;53.230;10.518;2023-08-31T04:51:59;13.60;99.90
7002;DHT22;3541;53.230;10.518;2023-08-31T04:54:26;13.60;99.90
7002;DHT22;3541;53.230;10.518;2023-08-31T04:56:52;13.60;99.90
7002;DHT22;3541;53.230;10.518;2023-08-31T04:59:19;13.60;99.90
7002;DHT22;3541;53.230;10.518;2023-08-31T05:01:45;13.60;99.90
7002;DHT22;3541;53.230;10.518;2023-08-31T05:04:12;13.40;99.90
7002;DHT22;3541;53.230;10.518;2023-08-31T05:06:39;13.50;99.90
7002;DHT22;3541;53.230;10.518;2023-08-31T05:09:06;13.50;99.90
7002;DHT22;3541;53.230;10.518;2023-08-31T05:11:35;13.50;99.90
7002;DHT22;3541;53.230;10.518;2023-08-31T05:14:01;13.40;99.90
7002;DHT22;3541;53.230;10.518;2023-08-31T05:16:29;13.30;99.90
7002;DHT22;3541;53.230;10.518;2023-08-31T05:18:55;13.30;99.90
7002;DHT22;3541;53.230;10.518;2023-08-31T05:21:22;13.30;99.90
7002;DHT22;3541;53.230;10.518;2023-08-31T05:23:48;13.40;99.90
7002;DHT22;3541;53.230;10.518;2023-08-31T05:26:16;13.40;99.90
7002;DHT22;3541;53.230;10.518;2023-08-31T05:28:43;13.50;99.90
7002;DHT22;3541;53.230;10.518;2023-08-31T05:31:09;13.50;99.90
7002;DHT22;3541;53.230;10.518;2023-08-31T05:33:36;13.50;99.90
7002;DHT22;3541;53.230;10.518;2023-08-31T05:36:03;13.50;99.90
7002;DHT22;3541;53.230;10.518;2023-08-31T05:38:30;13.50;99.90
7002;DHT22;3541;53.230;10.518;2023-08-31T05:41:04;13.40;99.90
7002;DHT22;3541;53.230;10.518;2023-08-31T05:43:33;13.50;99.90
7002;DHT22;3541;53.230;10.518;2023-08-31T05:45:59;13.50;99.90
7002;DHT22;3541;53.230;10.518;2023-08-31T05:48:26;13.50;99.90
7002;DHT22;3541;53.230;10.518;2023-08-31T05:50:53;13.60;99.90
7002;DHT22;3541;53.230;10.518;2023-08-31T05:53:20;13.50;99.90
7002;DHT22;3541;53.230;10.518;2023-08-31T05:55:47;13.40;99.90
7002;DHT22;3541;53.230;10.518;2023-08-31T05:58:13;13.40;99.90
7002;DHT22;3541;53.230;10.518;2023-08-31T06:00:41;13.50;99.90
7002;DHT22;3541;53.230;10.518;2023-08-31T06:03:08;13.50;99.90
7002;DHT22;3541;53.230;10.518;2023-08-31T06:05:35;13.60;99.90
7002;DHT22;3541;53.230;10.518;2023-08-31T06:08:04;13.60;99.90
7002;DHT22;3541;53.230;10.518;2023-08-31T06:10:30;13.60;99.90
7002;DHT22;3541;53.230;10.518;2023-08-31T06:12:57;13.50;99.90
7002;DHT22;3541;53.230;10.518;2023-08-31T06:15:24;13.40;99.90
7002;DHT22;3541;53.230;10.518;2023-08-31T06:17:51;13.60;99.90
7002;DHT22;3541;53.230;10.518;2023-08-31T06:20:18;13.60;99.90
7002;DHT22;3541;53.230;10.518;2023-08-31T06:22:45;13.50;99.90
7002;DHT22;3541;53.230;10.518;2023-08-31T06:25:11;13.60;99.90
7002;DHT22;3541;53.230;10.518;2023-08-31T06:27:42;13.60;99.90
7002;DHT22;3541;53.230;10.518;2023-08-31T06:30:09;13.70;99.90
7002;DHT22;3541;53.230;10.518;2023-08-31T06:32:37;13.80;99.90
7002;DHT22;3541;53.230;10.518;2023-08-31T06:35:06;13.80;99.90
7002;DHT22;3541;53.230;10.518;2023-08-31T06:37:32;13.70;99.90
7002;DHT22;3541;53.230;10.518;2023-08-31T06:39:59;13.80;99.90
7002;DHT22;3541;53.230;10.518;2023-08-31T06:42:25;13.70;99.90
7002;DHT22;3541;53.230;10.518;2023-08-31T06:44:52;13.80;99.90
7002;DHT22;3541;53.230;10.518;2023-08-31T06:47:21;13.90;99.90
7002;DHT22;3541;53.230;10.518;2023-08-31T06:49:48;13.90;99.90
7002;DHT22;3541;53.230;10.518;2023-08-31T06:52:16;13.90;99.90
7002;DHT22;3541;53.230;10.518;2023-08-31T06:54:43;13.90;99.90
7002;DHT22;3541;53.230;10.518;2023-08-31T06:57:09;13.90;99.90
7002;DHT22;3541;53.230;10.518;2023-08-31T06:59:36;13.90;99.90
7002;DHT22;3541;53.230;10.518;2023-08-31T07:02:03;13.70;99.90
7002;DHT22;3541;53.230;10.518;2023-08-31T07:04:29;13.70;99.90
7002;DHT22;3541;53.230;10.518;2023-08-31T07:06:56;13.70;99.90
7002;DHT22;3541;53.230;10.518;2023-08-31T07:09:24;13.70;99.90
7002;DHT22;3541;53.230;10.518;2023-08-31T07:11:52;13.80;99.90
7002;DHT22;3541;53.230;10.518;2023-08-31T07:14:18;13.90;99.90
7002;DHT22;3541;53.230;10.518;2023-08-31T07:16:45;13.90;99.90
7002;DHT22;3541;53.230;10.518;2023-08-31T07:19:12;13.90;99.90
7002;DHT22;3541;53.230;10.518;2023-08-31T07:21:38;14.00;99.90
7002;DHT22;3541;53.230;10.518;2023-08-31T07:24:05;14.00;99.90
7002;DHT22;3541;53.230;10.518;2023-08-31T07:26:33;14.10;99.90
7002;DHT22;3541;53.230;10.518;2023-08-31T07:29:00;14.10;99.90
7002;DHT22;3541;53.230;10.518;2023-08-31T07:31:29;14.00;99.90
7002;DHT22;3541;53.230;10.518;2023-08-31T07:33:56;14.10;99.90
7002;DHT22;3541;53.230;10.518;2023-08-31T07:36:24;14.00;99.90
7002;DHT22;3541;53.230;10.518;2023-08-31T07:38:51;14.00;99.90
7002;DHT22;3541;53.230;10.518;2023-08-31T07:41:17;14.10;99.90
7002;DHT22;3541;53.230;10.518;2023-08-31T07:43:45;14.20;99.90
7002;DHT22;3541;53.230;10.518;2023-08-31T07:46:12;14.30;99.90
7002;DHT22;3541;53.230;10.518;2023-08-31T07:48:38;14.30;99.90
7002;DHT22;3541;53.230;10.518;2023-08-31T07:51:05;14.20;99.90
7002;DHT22;3541;53.230;10.518;2023-08-31T07:53:31;14.30;99.90
7002;DHT22;3541;53.230;10.518;2023-08-31T07:55:58;14.30;99.90
7002;DHT22;3541;53.230;10.518;2023-08-31T07:58:25;14.30;99.90
7002;DHT22;3541;53.230;10.518;2023-08-31T08:00:53;14.50;99.90
7002;DHT22;3541;53.230;10.518;2023-08-31T08:03:21;14.60;99.90
7002;DHT22;3541;53.230;10.518;2023-08-31T08:05:47;14.60;99.90
7002;DHT22;3541;53.230;10.518;2023-08-31T08:08:14;14.60;99.90
7002;DHT22;3541;53.230;10.518;2023-08-31T08:10:41;14.60;99.90
7002;DHT22;3541;53.230;10.518;2023-08-31T08:13:08;14.50;99.90
7002;DHT22;3541;53.230;10.518;2023-08-31T08:15:35;14.30;99.90
7002;DHT22;3541;53.230;10.518;2023-08-31T08:18:04;14.20;99.90
7002;DHT22;3541;53.230;10.518;2023-08-31T08:20:31;14.00;99.90
7002;DHT22;3541;53.230;10.518;2023-08-31T08:22:57;13.90;99.90
7002;DHT22;3541;53.230;10.518;2023-08-31T08:25:25;14.00;99.90
7002;DHT22;3541;53.230;10.518;2023-08-31T08:27:51;14.10;99.90
7002;DHT22;3541;53.230;10.518;2023-08-31T08:30:18;14.10;99.90
7002;DHT22;3541;53.230;10.518;2023-08-31T08:32:45;14.00;99.90
7002;DHT22;3541;53.230;10.518;2023-08-31T08:35:12;14.00;99.90
7002;DHT22;3541;53.230;10.518;2023-08-31T08:37:39;14.20;99.90
7002;DHT22;3541;53.230;10.518;2023-08-31T08:40:07;14.20;99.90
7002;DHT22;3541;53.230;10.518;2023-08-31T08:42:38;14.30;99.90
7002;DHT22;3541;53.230;10.518;2023-08-31T08:45:08;14.40;99.90
7002;DHT22;3541;53.230;10.518;2023-08-31T08:47:40;14.50;99.90
7002;DHT22;3541;53.230;10.518;2023-08-31T08:50:09;14.50;99.90
7002;DHT22;3541;53.230;10.518;2023-08-31T08:52:38;14.60;99.90
7002;DHT22;3541;53.230;10.518;2023-08-31T08:55:06;14.70;99.90
7002;DHT22;3541;53.230;10.518;2023-08-31T08:57:33;14.80;99.90
7002;DHT22;3541;53.230;10.518;2023-08-31T08:59:59;15.00;99.90
7002;DHT22;3541;53.230;10.518;2023-08-31T09:02:26;14.90;99.90
7002;DHT22;3541;53.230;10.518;2023-08-31T09:04:52;14.90;99.90
7002;DHT22;3541;53.230;10.518;2023-08-31T09:07:20;14.90;99.90
7002;DHT22;3541;53.230;10.518;2023-08-31T09:09:51;15.00;99.90
7002;DHT22;3541;53.230;10.518;2023-08-31T09:12:18;15.20;99.90
7002;DHT22;3541;53.230;10.518;2023-08-31T09:14:57;15.30;99.90
7002;DHT22;3541;53.230;10.518;2023-08-31T09:17:24;15.30;99.90
7002;DHT22;3541;53.230;10.518;2023-08-31T09:19:58;15.30;99.90
7002;DHT22;3541;53.230;10.518;2023-08-31T09:22:25;15.40;99.90
7002;DHT22;3541;53.230;10.518;2023-08-31T09:24:53;15.30;99.90
7002;DHT22;3541;53.230;10.518;2023-08-31T09:27:20;15.30;99.90
7002;DHT22;3541;53.230;10.518;2023-08-31T09:29:47;15.20;99.90
7002;DHT22;3541;53.230;10.518;2023-08-31T09:32:16;15.40;99.90
7002;DHT22;3541;53.230;10.518;2023-08-31T09:34:43;15.50;99.90
7002;DHT22;3541;53.230;10.518;2023-08-31T09:37:09;15.40;99.90
7002;DHT22;3541;53.230;10.518;2023-08-31T09:39:36;15.40;99.90
7002;DHT22;3541;53.230;10.518;2023-08-31T09:42:05;15.30;99.90
7002;DHT22;3541;53.230;10.518;2023-08-31T09:44:31;15.30;99.90
7002;DHT22;3541;53.230;10.518;2023-08-31T09:46:58;15.30;99.90
7002;DHT22;3541;53.230;10.518;2023-08-31T09:49:25;15.20;99.90
7002;DHT22;3541;53.230;10.518;2023-08-31T09:51:52;15.00;99.90
7002;DHT22;3541;53.230;10.518;2023-08-31T09:54:20;14.90;99.90
7002;DHT22;3541;53.230;10.518;2023-08-31T09:56:47;14.70;99.90
7002;DHT22;3541;53.230;10.518;2023-08-31T09:59:16;14.60;99.90
7002;DHT22;3541;53.230;10.518;2023-08-31T10:01:45;14.60;99.90
7002;DHT22;3541;53.230;10.518;2023-08-31T10:04:12;14.60;99.90
7002;DHT22;3541;53.230;10.518;2023-08-31T10:06:39;14.60;99.90
7002;DHT22;3541;53.230;10.518;2023-08-31T10:09:06;14.60;99.90
7002;DHT22;3541;53.230;10.518;2023-08-31T10:11:35;14.50;99.90
7002;DHT22;3541;53.230;10.518;2023-08-31T10:14:02;14.30;99.90
7002;DHT22;3541;53.230;10.518;2023-08-31T10:16:32;14.40;99.90
7002;DHT22;3541;53.230;10.518;2023-08-31T10:18:59;14.40;99.90
7002;DHT22;3541;53.230;10.518;2023-08-31T10:21:25;14.40;99.90
7002;DHT22;3541;53.230;10.518;2023-08-31T10:23:52;14.50;99.90
7002;DHT22;3541;53.230;10.518;2023-08-31T10:26:26;14.50;99.90
7002;DHT22;3541;53.230;10.518;2023-08-31T10:28:53;14.60;99.90
7002;DHT22;3541;53.230;10.518;2023-08-31T10:31:21;14.70;99.90
7002;DHT22;3541;53.230;10.518;2023-08-31T10:33:56;14.80;99.90
7002;DHT22;3541;53.230;10.518;2023-08-31T10:36:38;15.10;99.90
7002;DHT22;3541;53.230;10.518;2023-08-31T10:39:07;15.30;99.90
7002;DHT22;3541;53.230;10.518;2023-08-31T10:41:36;15.40;99.90
7002;DHT22;3541;53.230;10.518;2023-08-31T10:44:18;15.20;99.90
7002;DHT22;3541;53.230;10.518;2023-08-31T10:46:45;15.10;99.90
7002;DHT22;3541;53.230;10.518;2023-08-31T10:49:18;15.20;99.90
7002;DHT22;3541;53.230;10.518;2023-08-31T10:51:46;15.30;99.90
7002;DHT22;3541;53.230;10.518;2023-08-31T10:54:20;15.30;99.90
7002;DHT22;3541;53.230;10.518;2023-08-31T10:59:47;15.40;99.90
7002;DHT22;3541;53.230;10.518;2023-08-31T11:02:44;15.50;99.90
7002;DHT22;3541;53.230;10.518;2023-08-31T11:05:14;15.50;99.90
7002;DHT22;3541;53.230;10.518;2023-08-31T11:07:42;15.60;99.90
7002;DHT22;3541;53.230;10.518;2023-08-31T11:10:12;15.70;99.90
7002;DHT22;3541;53.230;10.518;2023-08-31T11:12:39;15.70;99.90
7002;DHT22;3541;53.230;10.518;2023-08-31T11:15:07;15.60;99.90
7002;DHT22;3541;53.230;10.518;2023-08-31T11:17:34;15.70;99.90
7002;DHT22;3541;53.230;10.518;2023-08-31T11:20:01;15.80;99.90
7002;DHT22;3541;53.230;10.518;2023-08-31T11:22:31;15.80;99.90
7002;DHT22;3541;53.230;10.518;2023-08-31T11:24:59;15.90;99.90
7002;DHT22;3541;53.230;10.518;2023-08-31T11:27:26;15.80;99.90
7002;DHT22;3541;53.230;10.518;2023-08-31T11:29:52;15.80;99.90
7002;DHT22;3541;53.230;10.518;2023-08-31T11:32:19;15.70;99.90
7002;DHT22;3541;53.230;10.518;2023-08-31T11:34:45;16.00;99.90
7002;DHT22;3541;53.230;10.518;2023-08-31T11:37:13;16.20;99.90
7002;DHT22;3541;53.230;10.518;2023-08-31T11:39:49;16.50;99.90
7002;DHT22;3541;53.230;10.518;2023-08-31T11:42:16;16.50;99.90
7002;DHT22;3541;53.230;10.518;2023-08-31T11:44:44;16.40;99.90
7002;DHT22;3541;53.230;10.518;2023-08-31T11:47:11;16.40;99.90
7002;DHT22;3541;53.230;10.518;2023-08-31T11:49:39;16.50;99.90
7002;DHT22;3541;53.230;10.518;2023-08-31T11:52:06;16.70;99.90
7002;DHT22;3541;53.230;10.518;2023-08-31T11:54:32;16.80;99.90
7002;DHT22;3541;53.230;10.518;2023-08-31T11:57:00;16.90;99.90
7002;DHT22;3541;53.230;10.518;2023-08-31T11:59:29;17.20;99.90
7002;DHT22;3541;53.230;10.518;2023-08-31T12:02:00;17.30;99.90
7002;DHT22;3541;53.230;10.518;2023-08-31T12:04:27;17.50;99.90
7002;DHT22;3541;53.230;10.518;2023-08-31T12:07:00;17.30;99.90
7002;DHT22;3541;53.230;10.518;2023-08-31T12:09:29;17.30;99.90
7002;DHT22;3541;53.230;10.518;2023-08-31T12:11:55;16.90;99.90
7002;DHT22;3541;53.230;10.518;2023-08-31T12:14:25;16.80;99.90
7002;DHT22;3541;53.230;10.518;2023-08-31T12:16:59;16.70;99.90
7002;DHT22;3541;53.230;10.518;2023-08-31T12:19:27;16.60;99.90
7002;DHT22;3541;53.230;10.518;2023-08-31T12:21:54;16.70;99.90
7002;DHT22;3541;53.230;10.518;2023-08-31T12:24:21;16.90;99.90
7002;DHT22;3541;53.230;10.518;2023-08-31T12:26:48;17.00;99.90
7002;DHT22;3541;53.230;10.518;2023-08-31T12:29:15;17.00;99.90
7002;DHT22;3541;53.230;10.518;2023-08-31T12:31:43;16.90;99.90
7002;DHT22;3541;53.230;10.518;2023-08-31T12:34:10;16.90;99.90
7002;DHT22;3541;53.230;10.518;2023-08-31T12:36:36;16.80;99.90
7002;DHT22;3541;53.230;10.518;2023-08-31T12:39:06;16.80;99.90
7002;DHT22;3541;53.230;10.518;2023-08-31T12:41:35;16.70;99.90
7002;DHT22;3541;53.230;10.518;2023-08-31T12:44:02;16.50;99.90
7002;DHT22;3541;53.230;10.518;2023-08-31T12:46:29;16.40;99.90
7002;DHT22;3541;53.230;10.518;2023-08-31T12:48:58;16.50;99.90
7002;DHT22;3541;53.230;10.518;2023-08-31T12:51:25;16.50;99.90
7002;DHT22;3541;53.230;10.518;2023-08-31T12:53:51;16.70;99.90
7002;DHT22;3541;53.230;10.518;2023-08-31T12:56:18;17.20;99.90
7002;DHT22;3541;53.230;10.518;2023-08-31T12:58:48;17.30;99.90
7002;DHT22;3541;53.230;10.518;2023-08-31T13:01:15;17.50;99.90
7002;DHT22;3541;53.230;10.518;2023-08-31T13:03:42;17.80;99.90
7002;DHT22;3541;53.230;10.518;2023-08-31T13:06:09;18.20;99.90
7002;DHT22;3541;53.230;10.518;2023-08-31T13:08:37;18.40;99.90
7002;DHT22;3541;53.230;10.518;2023-08-31T13:11:03;18.60;99.90
7002;DHT22;3541;53.230;10.518;2023-08-31T13:13:30;18.70;99.90
7002;DHT22;3541;53.230;10.518;2023-08-31T13:15:57;18.60;99.90
7002;DHT22;3541;53.230;10.518;2023-08-31T13:18:24;18.20;99.90
7002;DHT22;3541;53.230;10.518;2023-08-31T13:20:51;18.00;99.90
7002;DHT22;3541;53.230;10.518;2023-08-31T13:23:19;17.80;99.90
7002;DHT22;3541;53.230;10.518;2023-08-31T13:25:45;17.90;99.90
7002;DHT22;3541;53.230;10.518;2023-08-31T13:28:12;18.00;99.90
7002;DHT22;3541;53.230;10.518;2023-08-31T13:30:39;18.00;99.90
7002;DHT22;3541;53.230;10.518;2023-08-31T13:33:06;17.80;99.90
7002;DHT22;3541;53.230;10.518;2023-08-31T13:35:33;17.80;99.90
7002;DHT22;3541;53.230;10.518;2023-08-31T13:38:00;17.70;99.90
7002;DHT22;3541;53.230;10.518;2023-08-31T13:40:28;18.00;99.90
7002;DHT22;3541;53.230;10.518;2023-08-31T13:42:56;17.90;99.90
7002;DHT22;3541;53.230;10.518;2023-08-31T13:45:25;17.90;99.90
7002;DHT22;3541;53.230;10.518;2023-08-31T13:47:52;17.90;99.90
7002;DHT22;3541;53.230;10.518;2023-08-31T13:50:18;17.80;99.90
7002;DHT22;3541;53.230;10.518;2023-08-31T13:52:45;17.80;99.90
7002;DHT22;3541;53.230;10.518;2023-08-31T13:55:12;17.60;99.90
7002;DHT22;3541;53.230;10.518;2023-08-31T13:57:41;17.50;99.90
7002;DHT22;3541;53.230;10.518;2023-08-31T14:00:09;17.40;99.90
7002;DHT22;3541;53.230;10.518;2023-08-31T14:02:36;17.10;99.90
7002;DHT22;3541;53.230;10.518;2023-08-31T14:05:04;16.60;99.90
7002;DHT22;3541;53.230;10.518;2023-08-31T14:07:31;16.20;99.90
7002;DHT22;3541;53.230;10.518;2023-08-31T14:09:58;16.10;99.90
7002;DHT22;3541;53.230;10.518;2023-08-31T14:12:25;15.90;99.90
7002;DHT22;3541;53.230;10.518;2023-08-31T14:14:53;15.50;99.90
7002;DHT22;3541;53.230;10.518;2023-08-31T14:17:19;15.40;99.90
7002;DHT22;3541;53.230;10.518;2023-08-31T14:19:45;15.10;99.90
7002;DHT22;3541;53.230;10.518;2023-08-31T14:22:12;14.90;99.90
7002;DHT22;3541;53.230;10.518;2023-08-31T14:24:38;14.70;99.90
7002;DHT22;3541;53.230;10.518;2023-08-31T14:27:05;14.80;99.90
7002;DHT22;3541;53.230;10.518;2023-08-31T14:29:32;14.90;99.90
7002;DHT22;3541;53.230;10.518;2023-08-31T14:32:01;15.00;99.90
7002;DHT22;3541;53.230;10.518;2023-08-31T14:34:28;15.10;99.90
7002;DHT22;3541;53.230;10.518;2023-08-31T14:36:55;15.30;99.90
7002;DHT22;3541;53.230;10.518;2023-08-31T14:39:22;15.70;99.90
7002;DHT22;3541;53.230;10.518;2023-08-31T14:41:50;16.00;99.90
7002;DHT22;3541;53.230;10.518;2023-08-31T14:44:16;16.10;99.90
7002;DHT22;3541;53.230;10.518;2023-08-31T14:46:43;16.20;99.90
7002;DHT22;3541;53.230;10.518;2023-08-31T14:49:11;16.40;99.90
7002;DHT22;3541;53.230;10.518;2023-08-31T14:51:37;16.60;99.90
7002;DHT22;3541;53.230;10.518;2023-08-31T14:54:04;16.60;99.90
7002;DHT22;3541;53.230;10.518;2023-08-31T14:56:31;16.70;99.90
7002;DHT22;3541;53.230;10.518;2023-08-31T14:58:57;16.70;99.90
7002;DHT22;3541;53.230;10.518;2023-08-31T15:01:24;16.70;99.90
7002;DHT22;3541;53.230;10.518;2023-08-31T15:03:51;16.90;99.90
7002;DHT22;3541;53.230;10.518;2023-08-31T15:06:18;17.00;99.90
7002;DHT22;3541;53.230;10.518;2023-08-31T15:08:45;17.20;99.90
7002;DHT22;3541;53.230;10.518;2023-08-31T15:11:12;17.50;99.90
7002;DHT22;3541;53.230;10.518;2023-08-31T15:13:38;17.80;99.90
7002;DHT22;3541;53.230;10.518;2023-08-31T15:16:05;18.10;99.90
7002;DHT22;3541;53.230;10.518;2023-08-31T15:18:32;18.10;99.90
7002;DHT22;3541;53.230;10.518;2023-08-31T15:20:58;18.00;99.90
7002;DHT22;3541;53.230;10.518;2023-08-31T15:23:27;18.00;99.90
7002;DHT22;3541;53.230;10.518;2023-08-31T15:25:58;18.30;99.90
7002;DHT22;3541;53.230;10.518;2023-08-31T15:28:25;18.50;99.90
7002;DHT22;3541;53.230;10.518;2023-08-31T15:30:52;18.70;99.90
7002;DHT22;3541;53.230;10.518;2023-08-31T15:33:18;18.70;99.90
7002;DHT22;3541;53.230;10.518;2023-08-31T15:35:45;18.80;99.90
7002;DHT22;3541;53.230;10.518;2023-08-31T15:38:11;19.00;99.90
7002;DHT22;3541;53.230;10.518;2023-08-31T15:40:45;19.10;99.90
7002;DHT22;3541;53.230;10.518;2023-08-31T15:43:12;19.10;99.90
7002;DHT22;3541;53.230;10.518;2023-08-31T15:45:44;19.00;99.90
7002;DHT22;3541;53.230;10.518;2023-08-31T15:48:12;19.10;99.90
7002;DHT22;3541;53.230;10.518;2023-08-31T15:50:38;19.00;99.90